sensor_id;sensor_type;location;lat;lon;timestamp;pressure;altitude;pressure_sealevel;temperature;humidity
36834;BME280;48003;52.084;5.224;2023-07-20T00:01:12;101495.0;;;20.53;72.31
36834;BME280;48003;52.084;5.224;2023-07-20T00:02:50;101496.0;;;20.49;72.62
36834;BME280;48003;52.084;5.224;2023-07-20T00:04:26;101495.0;;;20.45;72.44
36834;BME280;48003;52.084;5.224;2023-07-20T00:07:38;101493.0;;;20.45;72.75
36834;BME280;48003;52.084;5.224;2023-07-20T00:09:14;101490.0;;;20.41;72.8
36834;BME280;48003;52.084;5.224;2023-07-20T00:10:51;101487.0;;;20.38;72.8
36834;BME280;48003;52.084;5.224;2023-07-20T00:12:27;101487.0;;;20.36;72.86
36834;BME280;48003;52.084;5.224;2023-07-20T00:15:39;101490.0;;;20.3;72.95
36834;BME280;48003;52.084;5.224;2023-07-20T00:17:15;101492.0;;;20.25;72.89
36834;BME280;48003;52.084;5.224;2023-07-20T00:18:51;101493.0;;;20.27;72.72
36834;BME280;48003;52.084;5.224;2023-07-20T00:22:04;101491.0;;;20.2;72.8
36834;BME280;48003;52.084;5.224;2023-07-20T00:23:39;101496.0;;;20.18;72.97
36834;BME280;48003;52.084;5.224;2023-07-20T00:25:16;101496.0;;;20.12;72.97
36834;BME280;48003;52.084;5.224;2023-07-20T00:28:28;101496.0;;;20.11;73.11
36834;BME280;48003;52.084;5.224;2023-07-20T00:30:05;101494.0;;;20.07;73.08
36834;BME280;48003;52.084;5.224;2023-07-20T00:31:41;101490.0;;;20.11;72.91
36834;BME280;48003;52.084;5.224;2023-07-20T00:34:54;101486.0;;;20.05;73.03
36834;BME280;48003;52.084;5.224;2023-07-20T00:36:30;101489.0;;;20.02;73.19
36834;BME280;48003;52.084;5.224;2023-07-20T00:38:06;101487.0;;;20.0;73.42
36834;BME280;48003;52.084;5.224;2023-07-20T00:39:43;101489.0;;;19.95;73.69
36834;BME280;48003;52.084;5.224;2023-07-20T00:42:55;101491.0;;;19.93;73.81
36834;BME280;48003;52.084;5.224;2023-07-20T00:44:31;101493.0;;;19.91;73.74
36834;BME280;48003;52.084;5.224;2023-07-20T00:46:07;101493.0;;;19.87;73.69
36834;BME280;48003;52.084;5.224;2023-07-20T00:49:22;101493.0;;;19.82;73.56
36834;BME280;48003;52.084;5.224;2023-07-20T00:50:59;101487.0;;;19.79;73.31
36834;BME280;48003;52.084;5.224;2023-07-20T00:52:37;101487.0;;;19.77;73.33
36834;BME280;48003;52.084;5.224;2023-07-20T00:55:51;101489.0;;;19.77;73.16
36834;BME280;48003;52.084;5.224;2023-07-20T00:57:27;101493.0;;;19.77;73.2
36834;BME280;48003;52.084;5.224;2023-07-20T00:59:03;101489.0;;;19.7;73.31
36834;BME280;48003;52.084;5.224;2023-07-20T01:00:40;101492.0;;;19.64;73.34
36834;BME280;48003;52.084;5.224;2023-07-20T01:03:52;101489.0;;;19.62;73.22
36834;BME280;48003;52.084;5.224;2023-07-20T01:05:36;101492.0;;;19.56;73.49
36834;BME280;48003;52.084;5.224;2023-07-20T01:07:23;101494.0;;;19.55;73.58
36834;BME280;48003;52.084;5.224;2023-07-20T01:09:08;101490.0;;;19.53;73.83
36834;BME280;48003;52.084;5.224;2023-07-20T01:12:41;101489.0;;;19.48;73.62
36834;BME280;48003;52.084;5.224;2023-07-20T01:14:18;101486.0;;;19.45;73.88
36834;BME280;48003;52.084;5.224;2023-07-20T01:15:56;101490.0;;;19.39;74.03
36834;BME280;48003;52.084;5.224;2023-07-20T01:17:36;101488.0;;;19.38;74.11
36834;BME280;48003;52.084;5.224;2023-07-20T01:20:49;101490.0;;;19.37;74.08
36834;BME280;48003;52.084;5.224;2023-07-20T01:22:42;101489.0;;;19.34;74.12
36834;BME280;48003;52.084;5.224;2023-07-20T01:25:10;101491.0;;;19.31;74.31
36834;BME280;48003;52.084;5.224;2023-07-20T01:27:04;101494.0;;;19.31;74.37
36834;BME280;48003;52.084;5.224;2023-07-20T01:30:17;101494.0;;;19.29;74.25
36834;BME280;48003;52.084;5.224;2023-07-20T01:32:02;101494.0;;;19.28;74.14
36834;BME280;48003;52.084;5.224;2023-07-20T01:35:19;101501.0;;;19.27;74.19
36834;BME280;48003;52.084;5.224;2023-07-20T01:36:58;101497.0;;;19.23;74.31
36834;BME280;48003;52.084;5.224;2023-07-20T01:38:35;101500.0;;;19.22;74.47
36834;BME280;48003;52.084;5.224;2023-07-20T01:41:50;101500.0;;;19.2;74.41
36834;BME280;48003;52.084;5.224;2023-07-20T01:43:26;101503.0;;;19.16;74.52
36834;BME280;48003;52.084;5.224;2023-07-20T01:45:02;101501.0;;;19.18;74.42
36834;BME280;48003;52.084;5.224;2023-07-20T01:46:39;101500.0;;;19.16;74.42
36834;BME280;48003;52.084;5.224;2023-07-20T01:49:51;101498.0;;;19.16;74.56
36834;BME280;48003;52.084;5.224;2023-07-20T01:51:27;101501.0;;;19.16;74.24
36834;BME280;48003;52.084;5.224;2023-07-20T01:53:04;101503.0;;;19.11;74.47
36834;BME280;48003;52.084;5.224;2023-07-20T01:56:16;101505.0;;;19.05;74.52
36834;BME280;48003;52.084;5.224;2023-07-20T01:57:52;101506.0;;;19.02;74.66
36834;BME280;48003;52.084;5.224;2023-07-20T01:59:29;101508.0;;;19.03;74.69
36834;BME280;48003;52.084;5.224;2023-07-20T02:02:42;101509.0;;;19.0;74.74
36834;BME280;48003;52.084;5.224;2023-07-20T02:04:17;101507.0;;;18.97;74.74
36834;BME280;48003;52.084;5.224;2023-07-20T02:05:53;101510.0;;;18.93;74.83
36834;BME280;48003;52.084;5.224;2023-07-20T02:07:29;101508.0;;;18.93;74.91
36834;BME280;48003;52.084;5.224;2023-07-20T02:10:45;101505.0;;;18.93;74.88
36834;BME280;48003;52.084;5.224;2023-07-20T02:12:21;101508.0;;;18.88;74.91
36834;BME280;48003;52.084;5.224;2023-07-20T02:13:57;101508.0;;;18.86;74.99
36834;BME280;48003;52.084;5.224;2023-07-20T02:17:09;101507.0;;;18.82;75.14
36834;BME280;48003;52.084;5.224;2023-07-20T02:18:45;101507.0;;;18.84;75.0
36834;BME280;48003;52.084;5.224;2023-07-20T02:20:22;101507.0;;;18.82;75.09
36834;BME280;48003;52.084;5.224;2023-07-20T02:23:34;101508.0;;;18.8;75.16
36834;BME280;48003;52.084;5.224;2023-07-20T02:25:10;101507.0;;;18.77;75.16
36834;BME280;48003;52.084;5.224;2023-07-20T02:26:46;101506.0;;;18.8;75.17
36834;BME280;48003;52.084;5.224;2023-07-20T02:29:58;101509.0;;;18.77;75.33
36834;BME280;48003;52.084;5.224;2023-07-20T02:31:34;101509.0;;;18.77;75.41
36834;BME280;48003;52.084;5.224;2023-07-20T02:33:10;101503.0;;;18.77;75.33
36834;BME280;48003;52.084;5.224;2023-07-20T02:34:47;101506.0;;;18.78;75.3
36834;BME280;48003;52.084;5.224;2023-07-20T02:37:59;101506.0;;;18.75;75.41
36834;BME280;48003;52.084;5.224;2023-07-20T02:39:35;101510.0;;;18.75;75.5
36834;BME280;48003;52.084;5.224;2023-07-20T02:41:12;101510.0;;;18.75;75.41
36834;BME280;48003;52.084;5.224;2023-07-20T02:44:25;101512.0;;;18.75;75.33
36834;BME280;48003;52.084;5.224;2023-07-20T02:46:01;101514.0;;;18.66;75.55
36834;BME280;48003;52.084;5.224;2023-07-20T02:47:37;101518.0;;;18.68;75.55
36834;BME280;48003;52.084;5.224;2023-07-20T02:50:49;101518.0;;;18.7;75.48
36834;BME280;48003;52.084;5.224;2023-07-20T02:52:26;101515.0;;;18.7;75.49
36834;BME280;48003;52.084;5.224;2023-07-20T02:54:02;101520.0;;;18.68;75.37
36834;BME280;48003;52.084;5.224;2023-07-20T02:55:38;101525.0;;;18.66;75.3
36834;BME280;48003;52.084;5.224;2023-07-20T02:58:50;101525.0;;;18.62;75.34
36834;BME280;48003;52.084;5.224;2023-07-20T03:00:27;101531.0;;;18.59;75.52
36834;BME280;48003;52.084;5.224;2023-07-20T03:02:03;101532.0;;;18.57;75.58
36834;BME280;48003;52.084;5.224;2023-07-20T03:05:15;101533.0;;;18.54;75.67
36834;BME280;48003;52.084;5.224;2023-07-20T03:06:52;101533.0;;;18.54;75.64
36834;BME280;48003;52.084;5.224;2023-07-20T03:08:28;101535.0;;;18.52;75.7
36834;BME280;48003;52.084;5.224;2023-07-20T03:11:41;101535.0;;;18.5;75.66
36834;BME280;48003;52.084;5.224;2023-07-20T03:13:17;101540.0;;;18.5;75.58
36834;BME280;48003;52.084;5.224;2023-07-20T03:14:53;101542.0;;;18.45;75.61
36834;BME280;48003;52.084;5.224;2023-07-20T03:18:05;101547.0;;;18.46;75.59
36834;BME280;48003;52.084;5.224;2023-07-20T03:19:42;101547.0;;;18.45;75.49
36834;BME280;48003;52.084;5.224;2023-07-20T03:21:18;101548.0;;;18.43;75.42
36834;BME280;48003;52.084;5.224;2023-07-20T03:22:54;101551.0;;;18.39;75.58
36834;BME280;48003;52.084;5.224;2023-07-20T03:26:06;101549.0;;;18.37;75.62
36834;BME280;48003;52.084;5.224;2023-07-20T03:27:42;101545.0;;;18.36;75.69
36834;BME280;48003;52.084;5.224;2023-07-20T03:29:18;101545.0;;;18.34;75.69
36834;BME280;48003;52.084;5.224;2023-07-20T03:32:31;101540.0;;;18.31;75.75
36834;BME280;48003;52.084;5.224;2023-07-20T03:34:07;101545.0;;;18.32;75.7
36834;BME280;48003;52.084;5.224;2023-07-20T03:35:44;101545.0;;;18.31;75.87
36834;BME280;48003;52.084;5.224;2023-07-20T03:38:56;101542.0;;;18.29;75.83
36834;BME280;48003;52.084;5.224;2023-07-20T03:40:32;101546.0;;;18.25;76.09
36834;BME280;48003;52.084;5.224;2023-07-20T03:42:08;101545.0;;;18.25;76.06
36834;BME280;48003;52.084;5.224;2023-07-20T03:43:44;101547.0;;;18.23;75.91
36834;BME280;48003;52.084;5.224;2023-07-20T03:46:56;101548.0;;;18.22;75.97
36834;BME280;48003;52.084;5.224;2023-07-20T03:48:33;101548.0;;;18.2;75.95
36834;BME280;48003;52.084;5.224;2023-07-20T03:50:10;101550.0;;;18.18;75.97
36834;BME280;48003;52.084;5.224;2023-07-20T03:53:22;101548.0;;;18.16;75.63
36834;BME280;48003;52.084;5.224;2023-07-20T03:54:58;101547.0;;;18.11;75.59
36834;BME280;48003;52.084;5.224;2023-07-20T03:56:34;101549.0;;;18.07;75.64
36834;BME280;48003;52.084;5.224;2023-07-20T03:59:46;101549.0;;;18.14;75.52
36834;BME280;48003;52.084;5.224;2023-07-20T04:01:24;101548.0;;;18.16;75.3
36834;BME280;48003;52.084;5.224;2023-07-20T04:03:01;101551.0;;;18.14;75.14
36834;BME280;48003;52.084;5.224;2023-07-20T04:06:13;101555.0;;;18.16;75.09
36834;BME280;48003;52.084;5.224;2023-07-20T04:07:49;101558.0;;;18.18;75.03
36834;BME280;48003;52.084;5.224;2023-07-20T04:09:25;101557.0;;;18.16;75.19
36834;BME280;48003;52.084;5.224;2023-07-20T04:11:01;101560.0;;;18.22;75.12
36834;BME280;48003;52.084;5.224;2023-07-20T04:14:13;101562.0;;;18.2;75.33
36834;BME280;48003;52.084;5.224;2023-07-20T04:15:49;101563.0;;;18.16;75.47
36834;BME280;48003;52.084;5.224;2023-07-20T04:17:25;101563.0;;;18.16;75.45
36834;BME280;48003;52.084;5.224;2023-07-20T04:20:37;101564.0;;;18.13;75.44
36834;BME280;48003;52.084;5.224;2023-07-20T04:22:13;101564.0;;;18.07;75.67
36834;BME280;48003;52.084;5.224;2023-07-20T04:23:50;101568.0;;;18.11;75.53
36834;BME280;48003;52.084;5.224;2023-07-20T04:27:02;101570.0;;;18.09;75.78
36834;BME280;48003;52.084;5.224;2023-07-20T04:28:38;101567.0;;;18.07;75.91
36834;BME280;48003;52.084;5.224;2023-07-20T04:30:17;101571.0;;;18.06;76.0
36834;BME280;48003;52.084;5.224;2023-07-20T04:31:53;101575.0;;;18.05;75.83
36834;BME280;48003;52.084;5.224;2023-07-20T04:35:06;101576.0;;;18.09;75.72
36834;BME280;48003;52.084;5.224;2023-07-20T04:36:43;101580.0;;;18.03;75.75
36834;BME280;48003;52.084;5.224;2023-07-20T04:38:19;101578.0;;;18.02;76.03
36834;BME280;48003;52.084;5.224;2023-07-20T04:41:32;101574.0;;;17.97;76.22
36834;BME280;48003;52.084;5.224;2023-07-20T04:43:08;101575.0;;;17.97;76.33
36834;BME280;48003;52.084;5.224;2023-07-20T04:44:44;101574.0;;;17.95;76.45
36834;BME280;48003;52.084;5.224;2023-07-20T04:47:56;101578.0;;;18.02;76.55
36834;BME280;48003;52.084;5.224;2023-07-20T04:49:32;101580.0;;;18.02;76.66
36834;BME280;48003;52.084;5.224;2023-07-20T04:51:09;101580.0;;;18.02;76.77
36834;BME280;48003;52.084;5.224;2023-07-20T04:54:21;101576.0;;;18.05;76.94
36834;BME280;48003;52.084;5.224;2023-07-20T04:55:57;101582.0;;;18.07;77.12
36834;BME280;48003;52.084;5.224;2023-07-20T04:57:33;101581.0;;;18.16;77.13
36834;BME280;48003;52.084;5.224;2023-07-20T04:59:09;101584.0;;;18.18;77.25
36834;BME280;48003;52.084;5.224;2023-07-20T05:02:21;101588.0;;;18.27;77.17
36834;BME280;48003;52.084;5.224;2023-07-20T05:03:57;101587.0;;;18.31;77.08
36834;BME280;48003;52.084;5.224;2023-07-20T05:05:34;101584.0;;;18.36;77.08
36834;BME280;48003;52.084;5.224;2023-07-20T05:08:46;101587.0;;;18.41;77.05
36834;BME280;48003;52.084;5.224;2023-07-20T05:10:23;101585.0;;;18.45;76.94
36834;BME280;48003;52.084;5.224;2023-07-20T05:11:59;101586.0;;;18.46;76.83
36834;BME280;48003;52.084;5.224;2023-07-20T05:15:13;101586.0;;;18.46;76.73
36834;BME280;48003;52.084;5.224;2023-07-20T05:16:49;101587.0;;;18.5;76.72
36834;BME280;48003;52.084;5.224;2023-07-20T05:18:25;101588.0;;;18.5;76.44
36834;BME280;48003;52.084;5.224;2023-07-20T05:20:01;101591.0;;;18.56;76.36
36834;BME280;48003;52.084;5.224;2023-07-20T05:23:14;101590.0;;;18.57;76.33
36834;BME280;48003;52.084;5.224;2023-07-20T05:24:50;101589.0;;;18.59;76.3
36834;BME280;48003;52.084;5.224;2023-07-20T05:26:26;101588.0;;;18.59;76.16
36834;BME280;48003;52.084;5.224;2023-07-20T05:29:43;101589.0;;;18.59;76.27
36834;BME280;48003;52.084;5.224;2023-07-20T05:31:20;101587.0;;;18.61;76.11
36834;BME280;48003;52.084;5.224;2023-07-20T05:32:56;101584.0;;;18.63;76.12
36834;BME280;48003;52.084;5.224;2023-07-20T05:36:08;101582.0;;;18.66;75.98
36834;BME280;48003;52.084;5.224;2023-07-20T05:37:45;101582.0;;;18.72;75.64
36834;BME280;48003;52.084;5.224;2023-07-20T05:39:21;101581.0;;;18.73;75.33
36834;BME280;48003;52.084;5.224;2023-07-20T05:40:59;101585.0;;;18.75;75.37
36834;BME280;48003;52.084;5.224;2023-07-20T05:44:13;101584.0;;;18.79;74.37
36834;BME280;48003;52.084;5.224;2023-07-20T05:45:49;101585.0;;;18.79;74.0
36834;BME280;48003;52.084;5.224;2023-07-20T05:47:25;101584.0;;;18.79;73.83
36834;BME280;48003;52.084;5.224;2023-07-20T05:50:42;101582.0;;;18.86;73.12
36834;BME280;48003;52.084;5.224;2023-07-20T05:52:18;101583.0;;;18.91;73.14
36834;BME280;48003;52.084;5.224;2023-07-20T05:53:54;101583.0;;;18.95;72.89
36834;BME280;48003;52.084;5.224;2023-07-20T05:57:07;101584.0;;;18.96;72.78
36834;BME280;48003;52.084;5.224;2023-07-20T05:58:43;101584.0;;;19.0;72.36
36834;BME280;48003;52.084;5.224;2023-07-20T06:00:20;101588.0;;;19.02;71.66
36834;BME280;48003;52.084;5.224;2023-07-20T06:01:56;101590.0;;;19.04;70.73
36834;BME280;48003;52.084;5.224;2023-07-20T06:05:08;101589.0;;;19.07;70.72
36834;BME280;48003;52.084;5.224;2023-07-20T06:06:45;101592.0;;;19.09;69.75
36834;BME280;48003;52.084;5.224;2023-07-20T06:08:21;101593.0;;;19.13;69.41
36834;BME280;48003;52.084;5.224;2023-07-20T06:11:33;101597.0;;;19.14;69.16
36834;BME280;48003;52.084;5.224;2023-07-20T06:13:09;101597.0;;;19.18;68.5
36834;BME280;48003;52.084;5.224;2023-07-20T06:14:46;101597.0;;;19.12;68.1
36834;BME280;48003;52.084;5.224;2023-07-20T06:17:58;101597.0;;;19.25;68.05
36834;BME280;48003;52.084;5.224;2023-07-20T06:19:34;101602.0;;;19.3;68.34
36834;BME280;48003;52.084;5.224;2023-07-20T06:21:11;101597.0;;;19.28;67.77
36834;BME280;48003;52.084;5.224;2023-07-20T06:22:47;101595.0;;;19.3;67.39
36834;BME280;48003;52.084;5.224;2023-07-20T06:25:59;101598.0;;;19.36;67.33
36834;BME280;48003;52.084;5.224;2023-07-20T06:27:35;101599.0;;;19.38;67.41
36834;BME280;48003;52.084;5.224;2023-07-20T06:29:12;101605.0;;;19.45;66.98
36834;BME280;48003;52.084;5.224;2023-07-20T06:32:24;101601.0;;;19.47;67.25
36834;BME280;48003;52.084;5.224;2023-07-20T06:34:00;101605.0;;;19.48;66.97
36834;BME280;48003;52.084;5.224;2023-07-20T06:35:36;101608.0;;;19.46;66.45
36834;BME280;48003;52.084;5.224;2023-07-20T06:38:48;101609.0;;;19.43;66.16
36834;BME280;48003;52.084;5.224;2023-07-20T06:40:24;101612.0;;;19.43;66.22
36834;BME280;48003;52.084;5.224;2023-07-20T06:42:01;101615.0;;;19.53;65.84
36834;BME280;48003;52.084;5.224;2023-07-20T06:45:13;101613.0;;;19.59;65.64
36834;BME280;48003;52.084;5.224;2023-07-20T06:46:49;101618.0;;;19.59;65.08
36834;BME280;48003;52.084;5.224;2023-07-20T06:48:25;101619.0;;;19.68;64.58
36834;BME280;48003;52.084;5.224;2023-07-20T06:50:01;101615.0;;;19.7;64.69
36834;BME280;48003;52.084;5.224;2023-07-20T06:53:13;101621.0;;;19.66;64.44
36834;BME280;48003;52.084;5.224;2023-07-20T06:54:49;101625.0;;;19.77;63.97
36834;BME280;48003;52.084;5.224;2023-07-20T06:56:26;101622.0;;;19.68;63.91
36834;BME280;48003;52.084;5.224;2023-07-20T06:59:37;101619.0;;;19.7;62.75
36834;BME280;48003;52.084;5.224;2023-07-20T07:01:14;101624.0;;;19.75;63.18
36834;BME280;48003;52.084;5.224;2023-07-20T07:02:50;101614.0;;;19.84;62.95
36834;BME280;48003;52.084;5.224;2023-07-20T07:06:02;101615.0;;;19.88;62.78
36834;BME280;48003;52.084;5.224;2023-07-20T07:07:39;101617.0;;;19.93;63.21
36834;BME280;48003;52.084;5.224;2023-07-20T07:09:15;101613.0;;;19.96;63.23
36834;BME280;48003;52.084;5.224;2023-07-20T07:10:52;101618.0;;;19.97;63.6
36834;BME280;48003;52.084;5.224;2023-07-20T07:14:04;101615.0;;;20.02;63.84
36834;BME280;48003;52.084;5.224;2023-07-20T07:15:40;101617.0;;;20.0;63.16
36834;BME280;48003;52.084;5.224;2023-07-20T07:17:16;101620.0;;;20.02;62.26
36834;BME280;48003;52.084;5.224;2023-07-20T07:20:29;101620.0;;;20.07;61.63
36834;BME280;48003;52.084;5.224;2023-07-20T07:22:05;101621.0;;;20.07;61.08
36834;BME280;48003;52.084;5.224;2023-07-20T07:23:41;101623.0;;;20.11;59.96
36834;BME280;48003;52.084;5.224;2023-07-20T07:26:53;101622.0;;;20.05;60.14
36834;BME280;48003;52.084;5.224;2023-07-20T07:28:29;101621.0;;;20.11;60.38
36834;BME280;48003;52.084;5.224;2023-07-20T07:30:06;101622.0;;;20.12;60.51
36834;BME280;48003;52.084;5.224;2023-07-20T07:33:19;101623.0;;;20.11;60.62
36834;BME280;48003;52.084;5.224;2023-07-20T07:34:56;101620.0;;;20.16;60.07
36834;BME280;48003;52.084;5.224;2023-07-20T07:36:33;101622.0;;;20.25;60.31
36834;BME280;48003;52.084;5.224;2023-07-20T07:38:09;101619.0;;;20.25;60.58
36834;BME280;48003;52.084;5.224;2023-07-20T07:41:21;101618.0;;;20.32;60.59
36834;BME280;48003;52.084;5.224;2023-07-20T07:42:57;101621.0;;;20.43;60.36
36834;BME280;48003;52.084;5.224;2023-07-20T07:44:33;101620.0;;;20.41;60.45
36834;BME280;48003;52.084;5.224;2023-07-20T07:47:45;101624.0;;;20.45;60.51
36834;BME280;48003;52.084;5.224;2023-07-20T07:49:21;101630.0;;;20.53;60.46
36834;BME280;48003;52.084;5.224;2023-07-20T07:50:57;101630.0;;;20.62;59.98
36834;BME280;48003;52.084;5.224;2023-07-20T07:54:10;101634.0;;;20.5;58.41
36834;BME280;48003;52.084;5.224;2023-07-20T07:55:47;101633.0;;;20.56;57.75
36834;BME280;48003;52.084;5.224;2023-07-20T07:57:23;101625.0;;;20.63;57.52
36834;BME280;48003;52.084;5.224;2023-07-20T07:58:59;101630.0;;;20.58;56.38
36834;BME280;48003;52.084;5.224;2023-07-20T08:02:11;101628.0;;;20.53;55.07
36834;BME280;48003;52.084;5.224;2023-07-20T08:03:47;101630.0;;;20.51;53.74
36834;BME280;48003;52.084;5.224;2023-07-20T08:05:24;101633.0;;;20.54;54.19
36834;BME280;48003;52.084;5.224;2023-07-20T08:08:38;101631.0;;;20.57;54.46
36834;BME280;48003;52.084;5.224;2023-07-20T08:10:14;101626.0;;;20.65;53.62
36834;BME280;48003;52.084;5.224;2023-07-20T08:11:50;101626.0;;;20.66;53.73
36834;BME280;48003;52.084;5.224;2023-07-20T08:15:02;101623.0;;;20.64;52.77
36834;BME280;48003;52.084;5.224;2023-07-20T08:16:38;101621.0;;;20.69;52.08
36834;BME280;48003;52.084;5.224;2023-07-20T08:18:14;101623.0;;;20.68;52.33
36834;BME280;48003;52.084;5.224;2023-07-20T08:21:27;101620.0;;;20.83;52.64
36834;BME280;48003;52.084;5.224;2023-07-20T08:23:03;101622.0;;;20.86;52.8
36834;BME280;48003;52.084;5.224;2023-07-20T08:24:39;101627.0;;;20.91;52.66
36834;BME280;48003;52.084;5.224;2023-07-20T08:26:16;101625.0;;;21.05;52.95
36834;BME280;48003;52.084;5.224;2023-07-20T08:29:28;101632.0;;;20.93;48.51
36834;BME280;48003;52.084;5.224;2023-07-20T08:31:05;101631.0;;;21.02;48.36
36834;BME280;48003;52.084;5.224;2023-07-20T08:32:43;101633.0;;;21.04;46.24
36834;BME280;48003;52.084;5.224;2023-07-20T08:35:55;101637.0;;;21.06;45.04
36834;BME280;48003;52.084;5.224;2023-07-20T08:37:31;101638.0;;;21.05;45.76
36834;BME280;48003;52.084;5.224;2023-07-20T08:39:07;101644.0;;;21.08;46.21
36834;BME280;48003;52.084;5.224;2023-07-20T08:42:22;101641.0;;;21.09;46.31
36834;BME280;48003;52.084;5.224;2023-07-20T08:44:01;101648.0;;;20.94;46.3
36834;BME280;48003;52.084;5.224;2023-07-20T08:45:39;101643.0;;;21.1;45.89
36834;BME280;48003;52.084;5.224;2023-07-20T08:47:16;101640.0;;;21.18;44.52
36834;BME280;48003;52.084;5.224;2023-07-20T08:50:31;101637.0;;;21.18;45.45
36834;BME280;48003;52.084;5.224;2023-07-20T08:52:08;101630.0;;;21.18;45.84
36834;BME280;48003;52.084;5.224;2023-07-20T08:53:45;101635.0;;;21.17;46.82
36834;BME280;48003;52.084;5.224;2023-07-20T08:57:02;101636.0;;;21.26;47.16
36834;BME280;48003;52.084;5.224;2023-07-20T08:58:43;101639.0;;;20.79;48.36
36834;BME280;48003;52.084;5.224;2023-07-20T09:00:21;101638.0;;;21.22;48.12
36834;BME280;48003;52.084;5.224;2023-07-20T09:01:58;101639.0;;;21.39;47.36
36834;BME280;48003;52.084;5.224;2023-07-20T09:05:11;101630.0;;;21.49;46.62
36834;BME280;48003;52.084;5.224;2023-07-20T09:06:48;101627.0;;;21.48;45.55
36834;BME280;48003;52.084;5.224;2023-07-20T09:08:25;101633.0;;;21.55;45.54
36834;BME280;48003;52.084;5.224;2023-07-20T09:11:38;101630.0;;;21.59;44.72
36834;BME280;48003;52.084;5.224;2023-07-20T09:13:15;101622.0;;;21.58;44.03
36834;BME280;48003;52.084;5.224;2023-07-20T09:14:52;101630.0;;;21.61;44.58
36834;BME280;48003;52.084;5.224;2023-07-20T09:16:28;101630.0;;;21.74;44.37
36834;BME280;48003;52.084;5.224;2023-07-20T09:19:45;101630.0;;;21.73;44.56
36834;BME280;48003;52.084;5.224;2023-07-20T09:21:22;101628.0;;;21.75;45.75
36834;BME280;48003;52.084;5.224;2023-07-20T09:22:58;101632.0;;;21.74;45.97
36834;BME280;48003;52.084;5.224;2023-07-20T09:26:11;101632.0;;;21.5;43.7
36834;BME280;48003;52.084;5.224;2023-07-20T09:27:49;101635.0;;;21.84;44.1
36834;BME280;48003;52.084;5.224;2023-07-20T09:29:26;101634.0;;;21.89;44.39
36834;BME280;48003;52.084;5.224;2023-07-20T09:31:15;101630.0;;;22.08;45.0
36834;BME280;48003;52.084;5.224;2023-07-20T09:34:28;101627.0;;;22.16;43.08
36834;BME280;48003;52.084;5.224;2023-07-20T09:36:05;101628.0;;;22.19;42.5
36834;BME280;48003;52.084;5.224;2023-07-20T09:37:46;101630.0;;;22.19;43.56
36834;BME280;48003;52.084;5.224;2023-07-20T09:39:22;101630.0;;;22.14;42.06
36834;BME280;48003;52.084;5.224;2023-07-20T09:42:35;101630.0;;;21.96;42.74
36834;BME280;48003;52.084;5.224;2023-07-20T09:44:14;101627.0;;;22.19;41.94
36834;BME280;48003;52.084;5.224;2023-07-20T09:45:57;101625.0;;;22.22;43.08
36834;BME280;48003;52.084;5.224;2023-07-20T09:49:13;101622.0;;;22.24;43.02
36834;BME280;48003;52.084;5.224;2023-07-20T09:50:50;101624.0;;;22.32;43.21
36834;BME280;48003;52.084;5.224;2023-07-20T09:52:27;101625.0;;;22.46;43.69
36834;BME280;48003;52.084;5.224;2023-07-20T09:54:04;101621.0;;;22.49;43.79
36834;BME280;48003;52.084;5.224;2023-07-20T09:57:19;101620.0;;;22.52;43.88
36834;BME280;48003;52.084;5.224;2023-07-20T09:58:57;101616.0;;;22.52;44.3
36834;BME280;48003;52.084;5.224;2023-07-20T10:00:35;101616.0;;;22.79;44.43
36834;BME280;48003;52.084;5.224;2023-07-20T10:03:59;101616.0;;;22.8;43.53
36834;BME280;48003;52.084;5.224;2023-07-20T10:05:42;101617.0;;;22.81;43.63
36834;BME280;48003;52.084;5.224;2023-07-20T10:09:01;101612.0;;;22.89;43.25
36834;BME280;48003;52.084;5.224;2023-07-20T10:12:19;101611.0;;;23.05;43.02
36834;BME280;48003;52.084;5.224;2023-07-20T10:13:59;101614.0;;;22.9;42.92
36834;BME280;48003;52.084;5.224;2023-07-20T10:15:43;101619.0;;;22.74;42.9
36834;BME280;48003;52.084;5.224;2023-07-20T10:17:23;101608.0;;;23.15;42.51
36834;BME280;48003;52.084;5.224;2023-07-20T10:20:43;101612.0;;;22.84;42.02
36834;BME280;48003;52.084;5.224;2023-07-20T10:22:25;101608.0;;;23.27;41.83
36834;BME280;48003;52.084;5.224;2023-07-20T10:24:07;101606.0;;;23.53;41.68
36834;BME280;48003;52.084;5.224;2023-07-20T10:25:45;101607.0;;;23.61;41.31
36834;BME280;48003;52.084;5.224;2023-07-20T10:29:00;101600.0;;;23.71;41.96
36834;BME280;48003;52.084;5.224;2023-07-20T10:30:37;101606.0;;;23.62;41.79
36834;BME280;48003;52.084;5.224;2023-07-20T10:32:14;101605.0;;;23.58;41.88
36834;BME280;48003;52.084;5.224;2023-07-20T10:33:50;101605.0;;;23.51;41.8
36834;BME280;48003;52.084;5.224;2023-07-20T10:37:04;101607.0;;;23.24;43.14
36834;BME280;48003;52.084;5.224;2023-07-20T10:38:41;101609.0;;;23.54;42.16
36834;BME280;48003;52.084;5.224;2023-07-20T10:40:27;101605.0;;;23.73;41.45
36834;BME280;48003;52.084;5.224;2023-07-20T10:42:14;101596.0;;;23.8;41.1
36834;BME280;48003;52.084;5.224;2023-07-20T10:45:40;101591.0;;;23.79;41.37
36834;BME280;48003;52.084;5.224;2023-07-20T10:47:28;101591.0;;;23.77;41.3
36834;BME280;48003;52.084;5.224;2023-07-20T10:49:20;101586.0;;;24.02;40.92
36834;BME280;48003;52.084;5.224;2023-07-20T10:51:13;101597.0;;;23.45;40.85
36834;BME280;48003;52.084;5.224;2023-07-20T10:53:04;101588.0;;;23.99;40.81
36834;BME280;48003;52.084;5.224;2023-07-20T10:54:48;101589.0;;;24.39;40.81
36834;BME280;48003;52.084;5.224;2023-07-20T10:58:07;101583.0;;;24.28;40.76
36834;BME280;48003;52.084;5.224;2023-07-20T10:59:46;101586.0;;;24.69;40.85
36834;BME280;48003;52.084;5.224;2023-07-20T11:01:27;101583.0;;;24.92;40.1
36834;BME280;48003;52.084;5.224;2023-07-20T11:03:04;101587.0;;;24.75;39.04
36834;BME280;48003;52.084;5.224;2023-07-20T11:06:33;101584.0;;;24.95;39.12
36834;BME280;48003;52.084;5.224;2023-07-20T11:08:11;101582.0;;;25.02;38.6
36834;BME280;48003;52.084;5.224;2023-07-20T11:09:48;101585.0;;;25.01;38.62